Time;durP1;ratioP1;P1;durP2;ratioP2;P2;SDS_P1;SDS_P2;PMS_P1;PMS_P2;Temp;Humidity;BMP_temperature;BMP_pressure;BME280_temperature;BME280_humidity;BME280_pressure;Samples;Min_cycle;Max_cycle;Signal;HPM_P1;HPM_P2
2021/01/31 00:00:41;;;;;;;;;;;;;;;2.68;60.92;100563.88;5040366;28;19953;-86
2021/01/31 00:03:07;;;;;;;;;;;;;;;1.99;63.87;100567.81;5024472;28;19917;-84
2021/01/31 00:05:33;;;;;;;;;;;;;;;2.91;60.67;100574.09;5009944;28;19917;-86
2021/01/31 00:07:58;;;;;;;;;;;;;;;2.29;62.77;100577.06;5004924;28;19928;-86
2021/01/31 00:10:26;;;;;;;;;;;;;;;2.22;62.88;100588.75;5021646;28;19924;-86
2021/01/31 00:12:52;;;;;;;;;;;;;;;2.30;63.21;100595.72;5022037;28;19921;-84
2021/01/31 00:15:19;;;;;;;;;;;;;;;2.80;59.68;100581.47;5005263;28;19984;-85
2021/01/31 00:17:45;;;;;;;;;;;;;;;1.97;62.65;100591.84;5021591;28;19993;-84
2021/01/31 00:20:11;;;;;;;;;;;;;;;2.85;61.21;100582.25;5005032;28;20354;-83
2021/01/31 00:22:36;;;;;;;;;;;;;;;2.28;62.90;100591.31;5003914;28;20031;-82
2021/01/31 00:25:04;;;;;;;;;;;;;;;2.50;61.90;100588.28;5003537;28;20059;-84
2021/01/31 00:27:29;;;;;;;;;;;;;;;2.67;61.09;100594.16;5003659;28;19957;-84
2021/01/31 00:29:54;;;;;;;;;;;;;;;2.34;61.37;100596.56;5004084;28;20036;-85
2021/01/31 00:32:21;;;;;;;;;;;;;;;1.64;64.31;100610.13;5003285;28;19921;-85
2021/01/31 00:34:46;;;;;;;;;;;;;;;2.75;61.27;100602.94;5004062;28;19917;-84
2021/01/31 00:37:13;;;;;;;;;;;;;;;1.62;63.66;100609.28;5002628;28;19993;-85
2021/01/31 00:39:39;;;;;;;;;;;;;;;3.13;60.37;100609.28;5021449;28;19921;-84
2021/01/31 00:42:04;;;;;;;;;;;;;;;2.39;61.26;100610.72;5003368;28;19918;-81
2021/01/31 00:44:30;;;;;;;;;;;;;;;3.18;59.97;100612.72;5004157;28;20298;-84
2021/01/31 00:46:55;;;;;;;;;;;;;;;2.87;59.83;100622.28;5003862;28;19977;-86
2021/01/31 00:49:20;;;;;;;;;;;;;;;3.25;58.61;100612.63;5021411;28;19921;-86
2021/01/31 00:51:46;;;;;;;;;;;;;;;3.27;58.55;100624.16;5003223;28;19917;-82
2021/01/31 00:54:11;;;;;;;;;;;;;;;3.22;58.60;100626.94;5003220;28;19917;-86
2021/01/31 00:56:36;;;;;;;;;;;;;;;3.07;59.00;100628.13;5003911;28;20024;-83
2021/01/31 00:59:01;;;;;;;;;;;;;;;3.07;59.26;100636.16;5021665;28;19918;-81
2021/01/31 01:01:27;;;;;;;;;;;;;;;3.13;58.67;100630.66;5003095;28;19921;-86
2021/01/31 01:03:52;;;;;;;;;;;;;;;4.75;53.56;100623.28;5004001;28;19917;-85
2021/01/31 01:06:17;;;;;;;;;;;;;;;3.84;55.95;100630.94;5022925;28;20278;-84
2021/01/31 01:08:42;;;;;;;;;;;;;;;3.82;56.63;100636.31;5003624;28;19917;-84
2021/01/31 01:11:08;;;;;;;;;;;;;;;4.46;53.80;100632.97;5003942;28;19920;-85
2021/01/31 01:13:33;;;;;;;;;;;;;;;4.20;54.75;100636.31;5005274;28;19927;-85
2021/01/31 01:15:58;;;;;;;;;;;;;;;4.95;53.21;100634.34;5007048;28;20004;-86
2021/01/31 01:18:23;;;;;;;;;;;;;;;4.38;54.30;100643.03;5006573;28;19917;-86
2021/01/31 01:20:49;;;;;;;;;;;;;;;4.59;53.55;100637.09;5006729;28;19902;-83
2021/01/31 01:23:15;;;;;;;;;;;;;;;4.21;54.47;100638.97;5006763;28;19960;-87
2021/01/31 01:25:40;;;;;;;;;;;;;;;3.53;56.14;100640.53;5006007;28;19925;-84
2021/01/31 01:28:05;;;;;;;;;;;;;;;4.15;55.30;100633.75;5006603;28;20378;-86
2021/01/31 01:30:31;;;;;;;;;;;;;;;4.19;54.31;100623.84;5007110;28;19917;-85
2021/01/31 01:32:57;;;;;;;;;;;;;;;3.04;57.18;100630.00;5007585;28;19925;-84
2021/01/31 01:35:22;;;;;;;;;;;;;;;3.85;56.12;100625.53;5006449;28;19924;-86
2021/01/31 01:37:48;;;;;;;;;;;;;;;3.57;57.09;100624.41;5024343;28;19920;-85
2021/01/31 01:40:19;;;;;;;;;;;;;;;3.59;56.20;100622.56;5024629;28;19917;-85
2021/01/31 01:42:44;;;;;;;;;;;;;;;2.89;58.22;100623.16;5007188;28;19925;-84
2021/01/31 01:45:10;;;;;;;;;;;;;;;2.98;58.12;100628.31;5005914;28;20047;-86
2021/01/31 01:47:35;;;;;;;;;;;;;;;2.72;59.04;100632.38;5006672;28;19921;-86
2021/01/31 01:50:30;;;;;;;;;;;;;;;3.50;57.09;100627.22;5024093;28;19968;-88
2021/01/31 01:52:57;;;;;;;;;;;;;;;3.71;56.66;100616.94;4990022;28;19964;-85
2021/01/31 01:55:24;;;;;;;;;;;;;;;2.66;59.58;100625.34;5024529;28;19925;-84
2021/01/31 01:57:56;;;;;;;;;;;;;;;2.80;58.68;100619.75;5007045;28;19918;-85
2021/01/31 02:00:21;;;;;;;;;;;;;;;2.92;58.77;100615.06;5002142;28;19921;-86
2021/01/31 02:02:57;;;;;;;;;;;;;;;3.18;57.80;100619.88;5006390;28;19925;-83
2021/01/31 02:05:25;;;;;;;;;;;;;;;3.42;57.20;100610.47;5006403;28;19917;-85
2021/01/31 02:07:50;;;;;;;;;;;;;;;3.34;56.32;100613.31;5006233;28;19917;-85
2021/01/31 02:10:16;;;;;;;;;;;;;;;3.13;57.51;100611.97;5006748;28;19923;-85
2021/01/31 02:12:42;;;;;;;;;;;;;;;3.49;57.00;100609.41;5005698;28;19921;-83
2021/01/31 02:15:08;;;;;;;;;;;;;;;2.11;59.37;100621.88;5006352;28;19917;-85
2021/01/31 02:17:37;;;;;;;;;;;;;;;3.15;57.20;100610.13;5006204;28;19960;-85
2021/01/31 02:20:31;;;;;;;;;;;;;;;3.23;57.11;100611.75;5024082;28;19918;-85
2021/01/31 02:23:15;;;;;;;;;;;;;;;3.01;57.96;100606.88;4937549;28;19919;-86
2021/01/31 02:25:52;;;;;;;;;;;;;;;2.27;59.51;100626.94;5004402;28;19949;-85
2021/01/31 02:28:18;;;;;;;;;;;;;;;4.18;54.45;100612.28;5022954;28;19971;-86
2021/01/31 02:31:01;;;;;;;;;;;;;;;3.78;54.51;100618.56;5024416;28;20012;-86
2021/01/31 02:33:36;;;;;;;;;;;;;;;3.67;55.50;100609.94;5006204;28;19924;-85
2021/01/31 02:36:20;;;;;;;;;;;;;;;4.30;53.46;100605.69;5006434;28;20330;-85
2021/01/31 02:39:05;;;;;;;;;;;;;;;3.04;56.05;100608.63;5005078;28;19918;-84
2021/01/31 02:41:33;;;;;;;;;;;;;;;3.16;57.28;100595.84;5004965;28;19921;-87
2021/01/31 02:44:01;;;;;;;;;;;;;;;3.01;57.76;100610.41;5004898;28;19924;-86
2021/01/31 02:46:36;;;;;;;;;;;;;;;2.61;58.15;100604.97;5006027;28;19932;-85
2021/01/31 02:49:07;;;;;;;;;;;;;;;3.64;55.72;100600.16;5023095;28;19987;-84
2021/01/31 02:51:41;;;;;;;;;;;;;;;2.68;58.47;100601.28;5006119;28;20423;-86
2021/01/31 02:54:08;;;;;;;;;;;;;;;1.81;60.71;100590.34;5006416;28;19918;-84
2021/01/31 02:57:00;;;;;;;;;;;;;;;2.68;58.16;100595.94;5005933;28;19926;-85
2021/01/31 02:59:29;;;;;;;;;;;;;;;2.06;61.07;100594.38;5001398;28;19917;-87
2021/01/31 03:02:06;;;;;;;;;;;;;;;3.67;56.28;100591.19;5005716;28;19918;-86
2021/01/31 03:04:42;;;;;;;;;;;;;;;2.28;59.19;100593.97;5006256;28;19917;-85
2021/01/31 03:07:15;;;;;;;;;;;;;;;2.19;60.86;100591.47;5006236;28;19952;-85
2021/01/31 03:09:48;;;;;;;;;;;;;;;2.77;58.62;100595.75;5023340;28;19940;-84
2021/01/31 03:12:43;;;;;;;;;;;;;;;1.71;61.82;100601.16;5007964;28;19917;-85
2021/01/31 03:15:11;;;;;;;;;;;;;;;3.32;56.79;100603.53;5007363;28;19964;-85
2021/01/31 03:17:39;;;;;;;;;;;;;;;2.62;59.45;100612.09;5006055;28;19918;-86
2021/01/31 03:20:08;;;;;;;;;;;;;;;3.24;57.02;100597.50;5022938;28;19917;-86
2021/01/31 03:22:56;;;;;;;;;;;;;;;2.68;57.30;100614.63;5022867;28;19968;-85
2021/01/31 03:25:25;;;;;;;;;;;;;;;2.76;57.65;100604.69;5022450;28;20405;-86
2021/01/31 03:27:50;;;;;;;;;;;;;;;2.57;59.09;100617.50;5004829;28;19913;-86
2021/01/31 03:30:16;;;;;;;;;;;;;;;2.40;59.99;100607.13;5005595;28;19929;-85
2021/01/31 03:32:48;;;;;;;;;;;;;;;2.56;58.42;100612.19;5005461;28;19924;-87
2021/01/31 03:35:15;;;;;;;;;;;;;;;1.50;62.28;100606.81;5004925;28;19917;-87
2021/01/31 03:37:50;;;;;;;;;;;;;;;2.07;61.02;100614.81;5003968;28;20383;-81
2021/01/31 03:40:17;;;;;;;;;;;;;;;2.12;59.85;100610.25;5004530;28;19988;-81
2021/01/31 03:42:43;;;;;;;;;;;;;;;2.27;59.46;100606.47;5003999;28;19918;-85
2021/01/31 03:45:09;;;;;;;;;;;;;;;2.21;60.51;100611.91;5004284;28;19921;-84
2021/01/31 03:47:49;;;;;;;;;;;;;;;2.06;60.08;100609.50;5021068;28;19928;-87
2021/01/31 03:50:17;;;;;;;;;;;;;;;1.23;62.63;100624.91;5003621;28;22260;-85
2021/01/31 03:52:42;;;;;;;;;;;;;;;1.15;63.23;100616.16;5021807;28;19918;-86
2021/01/31 03:55:08;;;;;;;;;;;;;;;2.80;58.43;100617.06;5004789;28;20401;-85
2021/01/31 03:57:40;;;;;;;;;;;;;;;1.59;62.27;100617.31;5004946;28;19910;-86
2021/01/31 04:00:05;;;;;;;;;;;;;;;1.23;62.98;100622.25;5005333;28;19918;-84
2021/01/31 04:02:33;;;;;;;;;;;;;;;1.76;61.24;100622.41;5004069;28;20322;-85
2021/01/31 04:05:01;;;;;;;;;;;;;;;2.35;59.31;100624.13;5004258;28;20375;-83
2021/01/31 04:07:31;;;;;;;;;;;;;;;3.26;55.84;100619.72;5005294;28;19920;-85
2021/01/31 04:09:59;;;;;;;;;;;;;;;1.79;60.64;100625.03;5005128;28;19922;-87
2021/01/31 04:12:27;;;;;;;;;;;;;;;2.81;57.46;100612.63;5022428;28;19940;-85
2021/01/31 04:14:56;;;;;;;;;;;;;;;3.31;55.81;100615.16;5005165;28;19918;-87
2021/01/31 04:17:21;;;;;;;;;;;;;;;3.57;54.85;100608.38;5004604;28;19921;-85
2021/01/31 04:19:47;;;;;;;;;;;;;;;3.53;54.33;100610.22;5004564;28;19956;-87
2021/01/31 04:22:12;;;;;;;;;;;;;;;2.76;56.71;100610.03;5004392;28;19917;-83
2021/01/31 04:24:38;;;;;;;;;;;;;;;2.20;59.03;100617.28;5020995;28;19925;-86
2021/01/31 04:27:03;;;;;;;;;;;;;;;1.69;59.84;100616.28;5005110;28;19917;-84
2021/01/31 04:29:28;;;;;;;;;;;;;;;2.40;58.03;100612.47;5004906;28;19921;-87
2021/01/31 04:31:53;;;;;;;;;;;;;;;3.07;55.93;100611.22;5004561;28;20028;-86
2021/01/31 04:34:19;;;;;;;;;;;;;;;2.94;56.80;100613.25;5005008;28;19929;-85
2021/01/31 04:36:44;;;;;;;;;;;;;;;1.77;59.98;100627.72;5023446;28;19925;-84
2021/01/31 04:39:11;;;;;;;;;;;;;;;2.00;59.38;100626.47;4988680;28;19922;-86
2021/01/31 04:41:37;;;;;;;;;;;;;;;1.91;59.85;100630.16;5021402;28;20398;-86
2021/01/31 04:44:04;;;;;;;;;;;;;;;2.45;58.70;100623.94;5004235;28;19917;-85
2021/01/31 04:46:38;;;;;;;;;;;;;;;3.31;55.81;100612.50;5003832;28;19949;-85
2021/01/31 04:49:11;;;;;;;;;;;;;;;3.63;54.10;100609.09;5024536;28;19989;-86
2021/01/31 04:51:46;;;;;;;;;;;;;;;3.65;53.37;100611.75;5007842;28;19952;-85
2021/01/31 04:54:14;;;;;;;;;;;;;;;3.62;53.76;100618.03;5025241;28;19921;-87
2021/01/31 04:56:39;;;;;;;;;;;;;;;3.11;54.95;100632.50;5008446;28;19932;-86
2021/01/31 04:59:11;;;;;;;;;;;;;;;3.63;53.13;100626.94;5008325;28;19973;-85
2021/01/31 05:01:36;;;;;;;;;;;;;;;3.48;54.17;100631.72;4992423;28;19973;-85
2021/01/31 05:04:04;;;;;;;;;;;;;;;3.82;52.61;100617.59;5009201;28;20036;-86
2021/01/31 05:06:50;;;;;;;;;;;;;;;2.89;55.64;100625.81;5008785;28;19913;-88
2021/01/31 05:09:23;;;;;;;;;;;;;;;2.66;55.96;100620.00;5004828;28;19922;-86
2021/01/31 05:12:01;;;;;;;;;;;;;;;3.08;54.35;100629.91;5025996;28;20445;-85
2021/01/31 05:14:36;;;;;;;;;;;;;;;3.42;53.72;100623.81;5008659;28;19918;-85
2021/01/31 05:17:01;;;;;;;;;;;;;;;2.94;55.18;100624.81;5011983;28;19944;-86
2021/01/31 05:19:29;;;;;;;;;;;;;;;1.36;60.03;100626.53;5007580;28;19918;-82
2021/01/31 05:21:55;;;;;;;;;;;;;;;2.07;59.17;100622.81;5007387;28;19925;-86
2021/01/31 05:24:21;;;;;;;;;;;;;;;2.33;58.29;100626.84;5007573;28;20382;-83
2021/01/31 05:27:12;;;;;;;;;;;;;;;2.37;57.46;100625.88;5007771;28;19928;-85
2021/01/31 05:29:39;;;;;;;;;;;;;;;2.20;58.46;100626.16;5004774;28;19921;-87
2021/01/31 05:32:07;;;;;;;;;;;;;;;2.40;57.55;100612.47;5025336;28;20437;-85
2021/01/31 05:34:49;;;;;;;;;;;;;;;1.56;60.11;100617.38;5025361;28;20322;-87
2021/01/31 05:37:16;;;;;;;;;;;;;;;1.34;61.26;100632.78;5007973;28;19960;-86
2021/01/31 05:39:43;;;;;;;;;;;;;;;1.32;60.17;100631.91;5007384;28;19964;-85
2021/01/31 05:42:13;;;;;;;;;;;;;;;1.61;60.31;100627.97;5008299;28;19901;-87
2021/01/31 05:44:39;;;;;;;;;;;;;;;1.59;58.77;100628.00;5007049;28;19925;-86
2021/01/31 05:47:15;;;;;;;;;;;;;;;1.53;59.63;100614.75;5007435;28;19906;-82
2021/01/31 05:49:42;;;;;;;;;;;;;;;1.95;58.37;100623.03;5024911;28;19918;-86
2021/01/31 05:52:28;;;;;;;;;;;;;;;2.18;58.14;100622.63;5006827;28;20322;-84
2021/01/31 05:54:53;;;;;;;;;;;;;;;1.15;61.30;100633.00;5007125;28;19932;-87
2021/01/31 05:57:22;;;;;;;;;;;;;;;1.52;59.81;100631.63;5026523;28;19918;-85
2021/01/31 05:59:47;;;;;;;;;;;;;;;1.62;59.87;100627.94;5025951;28;19925;-84
2021/01/31 06:02:20;;;;;;;;;;;;;;;2.23;58.27;100633.22;5006616;28;19918;-85
2021/01/31 06:04:46;;;;;;;;;;;;;;;1.93;58.77;100639.06;5007291;28;19980;-85
2021/01/31 06:07:14;;;;;;;;;;;;;;;2.41;57.59;100640.03;5025213;28;20375;-85
2021/01/31 06:09:41;;;;;;;;;;;;;;;2.52;56.97;100637.19;5007779;28;19923;-86
2021/01/31 06:12:13;;;;;;;;;;;;;;;1.92;59.06;100631.06;5007402;28;20433;-85
2021/01/31 06:14:40;;;;;;;;;;;;;;;2.15;58.16;100620.03;5007786;28;20389;-86
2021/01/31 06:17:08;;;;;;;;;;;;;;;2.15;57.87;100621.81;5008375;28;19948;-87
2021/01/31 06:19:36;;;;;;;;;;;;;;;1.92;59.01;100615.06;5006711;28;20017;-86
2021/01/31 06:22:06;;;;;;;;;;;;;;;1.37;60.64;100617.59;4991535;28;20020;-85
2021/01/31 06:24:34;;;;;;;;;;;;;;;2.22;57.71;100620.78;5007734;28;19921;-85
2021/01/31 06:27:00;;;;;;;;;;;;;;;2.78;55.89;100604.66;5006808;28;19965;-85
2021/01/31 06:29:44;;;;;;;;;;;;;;;1.92;57.87;100623.06;5024774;28;19921;-86
2021/01/31 06:32:17;;;;;;;;;;;;;;;2.26;58.02;100619.84;5023771;28;20359;-88
2021/01/31 06:34:51;;;;;;;;;;;;;;;1.19;60.79;100623.19;5006121;28;20400;-86
2021/01/31 06:37:16;;;;;;;;;;;;;;;1.49;59.88;100629.03;5006701;28;19964;-88
2021/01/31 06:40:00;;;;;;;;;;;;;;;1.52;60.15;100616.50;5007393;28;19965;-87
2021/01/31 06:42:37;;;;;;;;;;;;;;;2.60;56.88;100614.78;5007434;28;19921;-87
2021/01/31 06:45:11;;;;;;;;;;;;;;;2.67;56.62;100615.53;5006874;28;19917;-85
2021/01/31 06:47:50;;;;;;;;;;;;;;;1.98;57.31;100620.31;5006507;28;19953;-86
2021/01/31 06:50:15;;;;;;;;;;;;;;;1.06;61.49;100623.34;5007032;28;19952;-87
2021/01/31 06:52:43;;;;;;;;;;;;;;;1.58;59.73;100613.75;5006820;28;19921;-87
2021/01/31 06:55:14;;;;;;;;;;;;;;;1.85;58.23;100611.59;5006881;28;20004;-86
2021/01/31 06:57:39;;;;;;;;;;;;;;;2.29;57.62;100619.78;5006961;28;20397;-83
2021/01/31 07:00:14;;;;;;;;;;;;;;;1.98;58.42;100617.63;5005642;28;19917;-85
2021/01/31 07:02:56;;;;;;;;;;;;;;;0.41;63.40;100624.91;5023132;28;19980;-87
2021/01/31 07:05:36;;;;;;;;;;;;;;;1.99;58.65;100613.16;5023033;28;19964;-86
2021/01/31 07:08:31;;;;;;;;;;;;;;;1.96;58.00;100616.75;5023705;28;19917;-85
2021/01/31 07:11:02;;;;;;;;;;;;;;;0.75;61.65;100638.78;5006530;28;19902;-89
2021/01/31 07:13:37;;;;;;;;;;;;;;;1.68;59.63;100627.84;5024443;28;19924;-86
2021/01/31 07:16:12;;;;;;;;;;;;;;;0.65;62.27;100638.00;5007563;28;19922;-85
2021/01/31 07:18:42;;;;;;;;;;;;;;;1.09;61.13;100645.50;5009222;28;19940;-85
2021/01/31 07:21:18;;;;;;;;;;;;;;;2.06;57.97;100644.19;5029742;28;19918;-87
2021/01/31 07:23:46;;;;;;;;;;;;;;;1.56;58.06;100646.69;5007527;28;19960;-87
2021/01/31 07:26:22;;;;;;;;;;;;;;;0.86;60.74;100657.31;5005698;28;19921;-89
2021/01/31 07:28:53;;;;;;;;;;;;;;;1.40;61.02;100662.91;5024215;28;20379;-88
2021/01/31 07:31:20;;;;;;;;;;;;;;;1.57;59.76;100667.09;5006654;28;20001;-86
2021/01/31 07:33:56;;;;;;;;;;;;;;;0.78;63.29;100669.81;5023939;28;19925;-87
2021/01/31 07:36:21;;;;;;;;;;;;;;;0.49;63.08;100669.22;5006472;28;19928;-86
2021/01/31 07:38:46;;;;;;;;;;;;;;;0.54;62.98;100663.84;5007010;28;20016;-91
2021/01/31 07:41:13;;;;;;;;;;;;;;;0.79;62.19;100663.63;5007157;28;19918;-84
2021/01/31 07:43:40;;;;;;;;;;;;;;;0.49;63.04;100665.66;5006528;28;19917;-88
2021/01/31 07:46:07;;;;;;;;;;;;;;;1.55;60.08;100668.91;5002993;28;19921;-88
2021/01/31 07:48:58;;;;;;;;;;;;;;;1.99;59.84;100670.06;4999996;28;19922;-87
2021/01/31 07:51:26;;;;;;;;;;;;;;;0.95;61.51;100673.22;5006702;28;19918;-88
2021/01/31 07:53:53;;;;;;;;;;;;;;;1.76;60.21;100663.28;5018597;28;19922;-86
2021/01/31 07:56:23;;;;;;;;;;;;;;;1.15;59.98;100659.66;4999387;28;19929;-85
2021/01/31 07:58:48;;;;;;;;;;;;;;;0.84;61.21;100667.09;5004219;28;19940;-83
2021/01/31 08:01:33;;;;;;;;;;;;;;;1.67;59.85;100657.22;5016288;28;20276;-87
2021/01/31 08:04:17;;;;;;;;;;;;;;;0.81;62.91;100664.47;5017419;28;20401;-88
2021/01/31 08:06:45;;;;;;;;;;;;;;;2.10;59.18;100654.78;5016547;28;19926;-86
2021/01/31 08:09:30;;;;;;;;;;;;;;;1.56;60.21;100668.03;5015266;28;20011;-88
2021/01/31 08:11:56;;;;;;;;;;;;;;;0.88;61.69;100660.84;4999907;28;20426;-87
2021/01/31 08:14:40;;;;;;;;;;;;;;;1.45;59.20;100668.19;5000717;28;19932;-85
2021/01/31 08:17:05;;;;;;;;;;;;;;;2.23;57.88;100667.94;4997896;28;19945;-86
2021/01/31 08:19:32;;;;;;;;;;;;;;;0.99;61.80;100668.72;4998408;28;19914;-88
2021/01/31 08:21:57;;;;;;;;;;;;;;;1.67;59.39;100650.09;4997291;28;19906;-87
2021/01/31 08:24:41;;;;;;;;;;;;;;;1.30;60.58;100657.69;5002479;28;19924;-86
2021/01/31 08:27:11;;;;;;;;;;;;;;;1.82;59.78;100653.44;5002057;28;19914;-88
2021/01/31 08:29:37;;;;;;;;;;;;;;;1.87;59.64;100649.81;5002766;28;19925;-89
2021/01/31 08:32:04;;;;;;;;;;;;;;;1.25;60.77;100644.41;5004664;28;19921;-87
2021/01/31 08:34:30;;;;;;;;;;;;;;;2.04;59.22;100632.63;5021062;28;19918;-90
2021/01/31 08:37:15;;;;;;;;;;;;;;;1.95;59.67;100639.91;5012490;28;20453;-86
2021/01/31 08:39:41;;;;;;;;;;;;;;;2.35;57.53;100637.50;5005171;28;20028;-88
2021/01/31 08:42:07;;;;;;;;;;;;;;;2.19;58.87;100634.19;5005426;28;19960;-88
2021/01/31 08:44:35;;;;;;;;;;;;;;;2.05;58.78;100627.28;5005756;28;20306;-83
2021/01/31 08:47:02;;;;;;;;;;;;;;;2.03;59.25;100620.22;5038700;28;19925;-85
2021/01/31 08:49:28;;;;;;;;;;;;;;;1.49;61.04;100613.03;5022927;28;20383;-87
2021/01/31 08:51:59;;;;;;;;;;;;;;;1.43;60.80;100605.97;5022695;28;19932;-85
2021/01/31 08:54:25;;;;;;;;;;;;;;;1.71;59.89;100610.94;5022695;28;19918;-87
2021/01/31 08:56:50;;;;;;;;;;;;;;;1.88;60.78;100616.00;5021066;28;19917;-81
2021/01/31 08:59:17;;;;;;;;;;;;;;;2.29;59.68;100609.09;5036843;28;20401;-83
2021/01/31 09:01:44;;;;;;;;;;;;;;;2.26;59.70;100603.81;5018808;28;20012;-84
2021/01/31 09:04:10;;;;;;;;;;;;;;;2.78;58.51;100605.53;5021347;28;20020;-86
2021/01/31 09:06:37;;;;;;;;;;;;;;;2.47;58.39;100613.25;5021390;28;19925;-87
2021/01/31 09:09:03;;;;;;;;;;;;;;;2.67;57.45;100607.53;5005108;28;20378;-86
2021/01/31 09:11:28;;;;;;;;;;;;;;;2.07;59.70;100604.13;5004655;28;19925;-87
2021/01/31 09:14:08;;;;;;;;;;;;;;;2.17;59.23;100610.19;5021949;28;19902;-91
2021/01/31 09:16:33;;;;;;;;;;;;;;;1.93;59.74;100612.38;5005268;28;19945;-87
2021/01/31 09:19:04;;;;;;;;;;;;;;;2.61;58.22;100603.19;5005390;28;19917;-90
2021/01/31 09:21:32;;;;;;;;;;;;;;;2.47;58.67;100606.09;5004619;28;19917;-87
2021/01/31 09:24:02;;;;;;;;;;;;;;;2.33;58.29;100600.16;4994477;28;20021;-87
2021/01/31 09:26:30;;;;;;;;;;;;;;;3.71;55.30;100591.09;5004341;28;19937;-86
2021/01/31 09:28:58;;;;;;;;;;;;;;;3.26;56.65;100603.69;5021959;28;19921;-86
2021/01/31 09:31:26;;;;;;;;;;;;;;;2.67;58.11;100599.50;5022063;28;20351;-89
2021/01/31 09:33:57;;;;;;;;;;;;;;;3.72;55.37;100591.97;5003063;28;19945;-86
2021/01/31 09:36:32;;;;;;;;;;;;;;;3.75;55.73;100596.38;5005526;28;19944;-90
2021/01/31 09:38:59;;;;;;;;;;;;;;;3.95;54.38;100593.22;5006302;28;19918;-88
2021/01/31 09:41:26;;;;;;;;;;;;;;;3.86;54.93;100586.28;5002895;28;19917;-86
2021/01/31 09:43:53;;;;;;;;;;;;;;;2.70;58.88;100587.88;5002668;28;19928;-82
2021/01/31 09:46:21;;;;;;;;;;;;;;;3.18;56.99;100588.66;5002258;28;19977;-85
2021/01/31 09:48:48;;;;;;;;;;;;;;;3.53;56.49;100580.78;5000935;28;19917;-84
2021/01/31 09:51:24;;;;;;;;;;;;;;;3.91;55.82;100581.72;5000815;28;20231;-84
2021/01/31 09:53:49;;;;;;;;;;;;;;;4.16;55.05;100576.59;5000413;28;19918;-83
2021/01/31 09:56:41;;;;;;;;;;;;;;;4.10;54.09;100576.75;5000961;28;19925;-82
2021/01/31 09:59:17;;;;;;;;;;;;;;;3.64;54.76;100573.41;4997452;28;20351;-84
2021/01/31 10:01:42;;;;;;;;;;;;;;;3.94;55.95;100564.66;5000809;28;19918;-84
2021/01/31 10:04:07;;;;;;;;;;;;;;;3.75;55.95;100570.47;5019690;28;20028;-85
2021/01/31 10:06:41;;;;;;;;;;;;;;;4.78;53.87;100558.88;5001641;28;19928;-84
2021/01/31 10:09:06;;;;;;;;;;;;;;;4.19;55.17;100557.78;5001169;28;19922;-83
2021/01/31 10:11:38;;;;;;;;;;;;;;;3.45;56.31;100543.53;5001586;28;19932;-84
2021/01/31 10:14:06;;;;;;;;;;;;;;;3.65;55.82;100550.22;5003530;28;19921;-89
2021/01/31 10:16:33;;;;;;;;;;;;;;;4.57;54.58;100550.50;5002597;28;19945;-86
2021/01/31 10:19:10;;;;;;;;;;;;;;;5.15;52.83;100552.47;5002306;28;20375;-89
2021/01/31 10:21:37;;;;;;;;;;;;;;;3.76;54.85;100553.53;5002402;28;19924;-85
2021/01/31 10:24:04;;;;;;;;;;;;;;;4.38;54.60;100543.94;5000959;28;19924;-83
2021/01/31 10:26:30;;;;;;;;;;;;;;;5.73;51.84;100543.53;5002934;28;19980;-83
2021/01/31 10:28:58;;;;;;;;;;;;;;;4.48;54.42;100540.06;5019372;28;19952;-86
2021/01/31 10:31:28;;;;;;;;;;;;;;;4.89;53.79;100531.78;5018390;28;19917;-84
2021/01/31 10:33:54;;;;;;;;;;;;;;;5.30;52.27;100535.91;5000846;28;19960;-84
2021/01/31 10:36:28;;;;;;;;;;;;;;;4.94;53.78;100528.03;5000906;28;20132;-86
2021/01/31 10:38:55;;;;;;;;;;;;;;;4.58;52.84;100530.84;5001807;28;19940;-89
2021/01/31 10:41:20;;;;;;;;;;;;;;;5.34;52.72;100523.25;5019061;28;19918;-85
2021/01/31 10:44:06;;;;;;;;;;;;;;;6.65;48.86;100515.31;5000330;28;19928;-85
2021/01/31 10:46:33;;;;;;;;;;;;;;;7.99;46.44;100510.06;4998750;28;20455;-86
2021/01/31 10:48:58;;;;;;;;;;;;;;;7.62;45.52;100500.78;5000568;28;19964;-82
2021/01/31 10:51:25;;;;;;;;;;;;;;;7.53;45.97;100507.41;5013560;28;19925;-86
2021/01/31 10:53:50;;;;;;;;;;;;;;;9.02;44.02;100499.22;4999531;28;19917;-85
2021/01/31 10:56:17;;;;;;;;;;;;;;;8.65;44.08;100496.41;4997453;28;20424;-86
2021/01/31 10:58:42;;;;;;;;;;;;;;;8.55;45.01;100503.16;4998190;28;19921;-87
2021/01/31 11:01:08;;;;;;;;;;;;;;;9.49;41.95;100496.06;4998485;28;20455;-85
2021/01/31 11:03:33;;;;;;;;;;;;;;;10.56;39.89;100478.06;4997399;28;19928;-87
2021/01/31 11:05:58;;;;;;;;;;;;;;;10.63;39.14;100473.22;4996404;28;19928;-84
2021/01/31 11:08:25;;;;;;;;;;;;;;;8.45;44.27;100467.63;4996188;28;19922;-86
2021/01/31 11:10:51;;;;;;;;;;;;;;;7.88;45.60;100464.72;4996657;28;19921;-85
2021/01/31 11:16:09;;;;;;;;;;;;;;;9.02;42.63;100450.66;4999868;28;19941;-91
2021/01/31 11:18:34;;;;;;;;;;;;;;;8.24;44.60;100452.41;4996725;28;19922;-85
2021/01/31 11:21:00;;;;;;;;;;;;;;;8.21;43.78;100455.22;4996566;28;19990;-86
2021/01/31 11:23:25;;;;;;;;;;;;;;;8.24;44.39;100445.19;4996461;28;19981;-88
2021/01/31 11:25:50;;;;;;;;;;;;;;;9.25;41.69;100440.59;4998488;28;19922;-87
2021/01/31 11:28:17;;;;;;;;;;;;;;;7.89;44.52;100441.34;4997803;28;19922;-84
2021/01/31 11:30:42;;;;;;;;;;;;;;;8.39;43.29;100429.28;4997200;28;19925;-86
2021/01/31 11:33:08;;;;;;;;;;;;;;;7.63;45.43;100428.03;5006217;28;19921;-89
2021/01/31 11:35:34;;;;;;;;;;;;;;;5.88;49.59;100426.69;5001308;28;19965;-85
2021/01/31 11:37:59;;;;;;;;;;;;;;;6.11;49.43;100424.09;5000201;28;20064;-89
2021/01/31 11:40:25;;;;;;;;;;;;;;;5.86;49.33;100416.88;5000442;28;19958;-87
2021/01/31 11:42:51;;;;;;;;;;;;;;;5.84;50.58;100407.13;5000553;28;19976;-86
2021/01/31 11:45:18;;;;;;;;;;;;;;;6.54;48.51;100401.03;5016669;28;19976;-87
2021/01/31 11:47:43;;;;;;;;;;;;;;;5.47;50.23;100392.31;5000094;28;19913;-86
2021/01/31 11:50:10;;;;;;;;;;;;;;;5.16;51.42;100390.63;5017000;28;19918;-86
2021/01/31 11:52:35;;;;;;;;;;;;;;;5.40;50.34;100382.72;4999486;28;19917;-84
2021/01/31 11:55:01;;;;;;;;;;;;;;;7.43;47.41;100377.75;4996105;28;19923;-81
2021/01/31 11:57:26;;;;;;;;;;;;;;;7.41;46.99;100373.34;4997876;28;19921;-81
2021/01/31 12:02:09;;;;;;;25.48;13.25;;;;;;;7.01;47.78;100373.19;5152605;27;20367;-84
2021/01/31 12:04:37;;;;;;;23.33;13.90;;;;;;;6.62;47.76;100375.66;5130709;27;20031;-83
2021/01/31 12:07:02;;;;;;;27.85;15.82;;;;;;;7.43;46.73;100366.97;5154930;27;20365;-85
2021/01/31 12:09:27;;;;;;;26.30;16.17;;;;;;;7.65;46.75;100368.75;5134893;27;20072;-80
2021/01/31 12:11:53;;;;;;;29.33;16.70;;;;;;;7.79;45.84;100358.25;5135659;27;20027;-83
2021/01/31 12:14:18;;;;;;;44.15;25.35;;;;;;;6.92;48.63;100355.63;5135739;27;20268;-84
2021/01/31 12:16:44;;;;;;;55.50;31.88;;;;;;;6.78;47.73;100351.72;5135909;27;20018;-86
2021/01/31 12:19:09;;;;;;;59.25;34.17;;;;;;;8.05;46.12;100347.28;5135086;27;20018;-83
2021/01/31 12:21:34;;;;;;;33.67;21.85;;;;;;;6.60;47.94;100358.69;5154823;27;20030;-85
2021/01/31 12:24:01;;;;;;;57.58;36.45;;;;;;;8.01;45.61;100346.53;5136281;27;20075;-87
2021/01/31 12:26:28;;;;;;;24.55;15.35;;;;;;;7.14;47.76;100340.41;5155052;27;20536;-84
2021/01/31 12:28:53;;;;;;;;;;;;;;;8.75;44.36;100326.94;5132474;27;20019;-82
2021/01/31 12:31:22;;;;;;;23.80;13.85;;;;;;;8.97;44.25;100315.13;5151881;27;20356;-85
2021/01/31 12:33:48;;;;;;;22.38;13.20;;;;;;;8.07;45.72;100310.34;5137025;27;20033;-82
2021/01/31 12:36:13;;;;;;;21.40;12.93;;;;;;;8.03;46.20;100301.56;5136118;27;20011;-89
2021/01/31 12:38:39;;;;;;;22.33;13.60;;;;;;;7.98;46.13;100295.50;5132948;27;20027;-89
2021/01/31 12:41:05;;;;;;;24.05;14.40;;;;;;;6.61;48.47;100291.44;5157291;27;20027;-89
2021/01/31 12:43:32;;;;;;;23.92;13.90;;;;;;;5.81;51.07;100289.13;5137444;27;20044;-88
2021/01/31 12:45:57;;;;;;;23.40;13.35;;;;;;;6.94;48.86;100282.94;5155653;27;20023;-85
2021/01/31 12:48:26;;;;;;;21.38;13.20;;;;;;;5.92;51.40;100269.94;5137345;27;20026;-86
2021/01/31 12:50:51;;;;;;;23.80;13.32;;;;;;;7.19;47.68;100265.78;5136898;27;20023;-86
2021/01/31 12:53:17;;;;;;;23.30;13.63;;;;;;;6.10;50.68;100253.16;5137269;27;20026;-83
2021/01/31 12:55:42;;;;;;;22.40;14.07;;;;;;;5.84;50.62;100259.47;5138387;27;20018;-86